Time;durP1;ratioP1;P1;durP2;ratioP2;P2;SDS_P1;SDS_P2;PMS_P1;PMS_P2;Temp;Humidity;BMP_temperature;BMP_pressure;BME280_temperature;BME280_humidity;BME280_pressure;Samples;Min_cycle;Max_cycle;Signal;HPM_P1;HPM_P2
2022/04/29 00:01:38;;;;;;;7.10;2.90;;;;;;;7.38;100.00;103217.41;4943528;28;20034;-77
2022/04/29 00:04:06;;;;;;;7.40;2.65;;;;;;;7.37;100.00;103225.19;4944631;28;26360;-77
2022/04/29 00:06:35;;;;;;;8.98;3.05;;;;;;;7.36;100.00;103216.44;4972525;28;20406;-77
2022/04/29 00:09:03;;;;;;;11.00;2.80;;;;;;;7.35;100.00;103227.75;4971029;28;20658;-77
2022/04/29 00:11:33;;;;;;;12.57;3.63;;;;;;;7.33;100.00;103221.50;4988148;28;20073;-78
2022/04/29 00:14:01;;;;;;;6.57;2.67;;;;;;;7.33;100.00;103218.88;4980247;28;20049;-77
2022/04/29 00:16:29;;;;;;;5.80;2.50;;;;;;;7.32;100.00;103222.34;4998404;28;20069;-77
2022/04/29 00:18:58;;;;;;;5.53;2.42;;;;;;;7.31;100.00;103223.13;4970105;28;20176;-77
2022/04/29 00:21:27;;;;;;;8.70;2.67;;;;;;;7.30;100.00;103216.09;4954296;28;20050;-78
2022/04/29 00:23:56;;;;;;;8.23;3.08;;;;;;;7.32;100.00;103210.94;4980495;28;20051;-78
2022/04/29 00:26:24;;;;;;;6.82;2.85;;;;;;;7.31;100.00;103210.03;4974364;28;20049;-78
2022/04/29 00:28:53;;;;;;;7.35;2.40;;;;;;;7.31;100.00;103204.78;4971969;28;20233;-78
2022/04/29 00:31:21;;;;;;;6.70;2.20;;;;;;;7.30;100.00;103213.47;4967904;28;20038;-77
2022/04/29 00:33:50;;;;;;;10.95;2.45;;;;;;;7.29;100.00;103205.53;4976262;28;20069;-78
2022/04/29 00:36:19;;;;;;;3.40;2.33;;;;;;;7.29;100.00;103195.94;4964292;28;20042;-77
2022/04/29 00:38:48;;;;;;;10.55;2.60;;;;;;;7.28;100.00;103202.00;4970739;28;20042;-78
2022/04/29 00:41:18;;;;;;;4.88;2.55;;;;;;;7.29;100.00;103202.91;4980481;28;20046;-77
2022/04/29 00:43:46;;;;;;;4.90;2.88;;;;;;;7.29;100.00;103205.53;4993635;28;20041;-79
2022/04/29 00:46:15;;;;;;;9.27;2.50;;;;;;;7.28;100.00;103212.50;4986293;28;20057;-76
2022/04/29 00:48:44;;;;;;;9.77;2.58;;;;;;;7.27;100.00;103204.53;4976892;28;20046;-79
2022/04/29 00:51:12;;;;;;;9.65;3.25;;;;;;;7.28;100.00;103209.88;4962855;28;20065;-77
2022/04/29 00:53:41;;;;;;;6.03;2.70;;;;;;;7.29;100.00;103201.16;4949988;28;20047;-76
2022/04/29 00:56:11;;;;;;;7.32;2.67;;;;;;;7.28;100.00;103199.38;4982703;28;20363;-76
2022/04/29 00:58:46;;;;;;;5.88;2.88;;;;;;;7.28;100.00;103202.00;4983419;28;20042;-79
2022/04/29 01:01:15;;;;;;;8.35;2.78;;;;;;;7.26;100.00;103193.16;5000950;28;20038;-80
2022/04/29 01:03:49;;;;;;;8.20;2.40;;;;;;;7.25;100.00;103187.81;4951514;28;20049;-80
2022/04/29 01:06:17;;;;;;;4.53;2.08;;;;;;;7.22;100.00;103178.06;4985340;28;20058;-80
2022/04/29 01:08:48;;;;;;;8.13;3.03;;;;;;;7.21;100.00;103184.13;4946595;28;20380;-80
2022/04/29 01:11:22;;;;;;;10.15;2.28;;;;;;;7.18;100.00;103182.25;4984420;28;20055;-79
2022/04/29 01:13:52;;;;;;;7.35;2.38;;;;;;;7.17;100.00;103188.31;4967490;28;20030;-80
2022/04/29 01:16:21;;;;;;;4.78;2.25;;;;;;;7.18;100.00;103183.94;4977385;28;20042;-79
2022/04/29 01:18:53;;;;;;;11.38;2.38;;;;;;;7.16;100.00;103186.47;4971119;28;20039;-80
2022/04/29 01:21:22;;;;;;;7.07;2.75;;;;;;;7.16;100.00;103180.34;4969639;28;20516;-79
2022/04/29 01:23:51;;;;;;;3.70;1.88;;;;;;;7.15;100.00;103183.81;4959268;28;20389;-80
2022/04/29 01:26:20;;;;;;;10.10;2.00;;;;;;;7.13;100.00;103178.47;4986275;28;20039;-79
2022/04/29 01:28:52;;;;;;;6.38;2.22;;;;;;;7.13;100.00;103180.19;4958319;28;20068;-80
2022/04/29 01:31:23;;;;;;;6.78;2.15;;;;;;;7.09;100.00;103171.25;4979918;28;20456;-79
2022/04/29 01:33:53;;;;;;;8.77;2.78;;;;;;;7.08;100.00;103165.94;4994262;28;20550;-80
2022/04/29 01:36:22;;;;;;;7.40;2.23;;;;;;;7.05;100.00;103164.06;4984122;28;20249;-78
2022/04/29 01:38:51;;;;;;;4.05;2.20;;;;;;;7.04;100.00;103167.47;4941713;28;20043;-80
2022/04/29 01:41:21;;;;;;;6.18;2.22;;;;;;;7.02;100.00;103154.28;4984846;28;20035;-79
2022/04/29 01:43:49;;;;;;;5.43;2.28;;;;;;;7.01;100.00;103160.34;4962746;28;20046;-80
2022/04/29 01:46:19;;;;;;;11.00;2.78;;;;;;;6.99;100.00;103150.59;4988501;28;20045;-80
2022/04/29 01:49:20;;;;;;;8.38;2.38;;;;;;;6.97;100.00;103157.47;4957058;28;20054;-78
2022/04/29 01:51:57;;;;;;;5.13;2.25;;;;;;;6.95;100.00;103148.63;4980004;28;20154;-81
2022/04/29 01:54:27;;;;;;;7.78;2.47;;;;;;;6.93;100.00;103155.50;4947752;28;20047;-80
2022/04/29 01:56:56;;;;;;;5.97;2.55;;;;;;;6.94;100.00;103154.69;4983050;28;20050;-79
2022/04/29 01:59:24;;;;;;;8.77;2.47;;;;;;;6.93;100.00;103161.63;4945149;28;20047;-80
2022/04/29 02:02:10;;;;;;;7.07;2.50;;;;;;;6.92;100.00;103165.09;4969002;28;20047;-78
2022/04/29 02:04:38;;;;;;;9.18;2.50;;;;;;;6.92;100.00;103156.31;4979241;28;20451;-80
2022/04/29 02:07:07;;;;;;;5.28;2.40;;;;;;;6.90;100.00;103161.50;4955787;28;20039;-79
2022/04/29 02:09:41;;;;;;;7.30;2.63;;;;;;;6.91;100.00;103157.13;4948607;28;20363;-80
2022/04/29 02:12:11;;;;;;;6.32;2.80;;;;;;;6.92;100.00;103164.16;4969264;28;20087;-80
2022/04/29 02:14:58;;;;;;;8.27;3.15;;;;;;;6.91;100.00;103162.38;4968808;28;20063;-78
2022/04/29 02:17:35;;;;;;;8.40;2.70;;;;;;;6.90;100.00;103158.88;4960325;28;20038;-81
2022/04/29 02:20:04;;;;;;;6.45;2.88;;;;;;;6.91;100.00;103154.50;4950301;28;20037;-78
2022/04/29 02:22:33;;;;;;;3.93;2.13;;;;;;;6.91;100.00;103155.41;4980784;28;20423;-78
2022/04/29 02:25:03;;;;;;;6.85;2.90;;;;;;;6.90;100.00;103144.84;4968094;28;20061;-78
2022/04/29 02:27:32;;;;;;;2.42;2.22;;;;;;;6.88;100.00;103143.84;4983781;28;20065;-78
2022/04/29 02:30:00;;;;;;;4.57;2.53;;;;;;;6.88;100.00;103139.53;4988597;28;20057;-79
2022/04/29 02:32:31;;;;;;;8.43;3.10;;;;;;;6.86;100.00;103132.38;4976320;28;20240;-78
2022/04/29 02:35:00;;;;;;;9.32;2.42;;;;;;;6.86;100.00;103125.41;4999106;28;20046;-80
2022/04/29 02:37:30;;;;;;;5.93;2.20;;;;;;;6.87;100.00;103134.19;4964937;28;20319;-80
2022/04/29 02:39:58;;;;;;;7.38;2.80;;;;;;;6.89;100.00;103145.66;4964967;28;20041;-79
2022/04/29 02:42:28;;;;;;;5.82;2.92;;;;;;;6.88;100.00;103149.09;4946739;28;20119;-80
2022/04/29 02:44:57;;;;;;;4.93;1.92;;;;;;;6.90;100.00;103140.50;4986931;28;20388;-80
2022/04/29 02:47:39;;;;;;;9.40;2.70;;;;;;;6.89;100.00;103141.31;4974056;28;20038;-79
2022/04/29 02:50:08;;;;;;;5.32;2.50;;;;;;;6.88;100.00;103150.03;4945478;28;20039;-80
2022/04/29 02:52:49;;;;;;;2.80;2.38;;;;;;;6.88;100.00;103142.16;4965640;28;20422;-80
2022/04/29 02:55:18;;;;;;;4.20;3.17;;;;;;;6.90;100.00;103136.97;4966933;28;20396;-80
2022/04/29 02:57:58;;;;;;;5.28;3.00;;;;;;;6.89;100.00;103130.84;4945479;28;20046;-80
2022/04/29 03:00:28;;;;;;;3.38;2.45;;;;;;;6.89;100.00;103130.84;4967004;28;20171;-79
2022/04/29 03:02:57;;;;;;;8.88;4.00;;;;;;;6.87;100.00;103123.72;4975988;28;20456;-79
2022/04/29 03:05:26;;;;;;;6.90;2.83;;;;;;;6.85;100.00;103121.00;4978970;28;20047;-80
2022/04/29 03:07:54;;;;;;;7.82;3.08;;;;;;;6.85;100.00;103123.63;4968934;28;20043;-80
2022/04/29 03:10:23;;;;;;;6.03;2.58;;;;;;;6.85;100.00;103127.97;4965851;28;20047;-80
2022/04/29 03:12:52;;;;;;;5.82;2.53;;;;;;;6.83;100.00;103135.75;4964917;28;20038;-80
2022/04/29 03:15:25;;;;;;;6.53;2.80;;;;;;;6.81;100.00;103126.91;4952546;28;20061;-80
2022/04/29 03:20:45;;;;;;;8.85;3.05;;;;;;;6.79;100.00;103124.19;4977336;28;20050;-78
2022/04/29 03:23:14;;;;;;;4.97;2.50;;;;;;;6.78;100.00;103118.84;4969727;28;20399;-79
2022/04/29 03:25:48;;;;;;;5.90;3.20;;;;;;;6.76;100.00;103121.38;4968215;28;20038;-78
2022/04/29 03:28:17;;;;;;;9.50;2.78;;;;;;;6.72;100.00;103131.63;4962510;28;20035;-78
2022/04/29 03:30:45;;;;;;;7.95;2.80;;;;;;;6.73;100.00;103125.56;4966353;28;21432;-78
2022/04/29 03:33:15;;;;;;;8.85;2.72;;;;;;;6.72;100.00;103121.16;4960732;28;20433;-78
2022/04/29 03:35:46;;;;;;;10.45;3.03;;;;;;;6.72;100.00;103123.78;4961436;28;20302;-78
2022/04/29 03:38:25;;;;;;;5.38;2.88;;;;;;;6.72;100.00;103115.91;4961270;28;20057;-78
2022/04/29 03:40:55;;;;;;;3.88;2.60;;;;;;;6.73;100.00;103116.00;5003430;28;20042;-78
2022/04/29 03:43:27;;;;;;;8.00;3.85;;;;;;;6.75;100.00;103118.72;4942182;28;20395;-78
2022/04/29 03:45:56;;;;;;;4.88;2.65;;;;;;;6.77;100.00;103124.94;4987097;28;20050;-78
2022/04/29 03:51:45;;;;;;;6.22;2.67;;;;;;;6.82;100.00;103127.00;4980055;28;20049;-78
2022/04/29 03:54:14;;;;;;;5.65;2.92;;;;;;;6.83;100.00;103128.78;4974523;28;20420;-80
2022/04/29 03:56:47;;;;;;;7.70;2.83;;;;;;;6.85;100.00;103125.34;4979247;28;20057;-78
2022/04/29 03:59:15;;;;;;;7.78;3.42;;;;;;;6.83;100.00;103120.91;4948946;28;20046;-78
2022/04/29 04:01:45;;;;;;;6.55;3.20;;;;;;;6.85;100.00;103117.50;4953920;28;20164;-78
2022/04/29 04:04:14;;;;;;;5.63;2.90;;;;;;;6.86;100.00;103121.91;4967642;28;20045;-79
2022/04/29 04:06:51;;;;;;;8.25;3.05;;;;;;;6.88;100.00;103123.81;4962342;28;20053;-79
2022/04/29 04:09:40;;;;;;;9.93;3.08;;;;;;;6.89;100.00;103120.34;4965665;28;20051;-79
2022/04/29 04:12:10;;;;;;;9.88;3.13;;;;;;;6.92;100.00;103127.47;4966638;28;20042;-81
2022/04/29 04:15:00;;;;;;;6.55;3.20;;;;;;;6.95;100.00;103125.03;4958760;28;20042;-78
2022/04/29 04:17:35;;;;;;;7.40;3.95;;;;;;;6.96;100.00;103127.75;4949595;28;20073;-79
2022/04/29 04:20:06;;;;;;;4.63;2.72;;;;;;;6.98;100.00;103118.22;4967011;28;20049;-80
2022/04/29 04:22:45;;;;;;;7.28;3.03;;;;;;;6.99;100.00;103120.06;4977730;28;20168;-79
2022/04/29 04:25:14;;;;;;;9.77;2.80;;;;;;;7.02;100.00;103127.16;4956232;28;20042;-80
2022/04/29 04:27:43;;;;;;;5.53;3.47;;;;;;;7.02;100.00;103125.44;4967875;28;20046;-77
2022/04/29 04:30:12;;;;;;;5.60;2.80;;;;;;;7.06;100.00;103131.75;4946557;28;20054;-80
2022/04/29 04:32:42;;;;;;;8.68;3.00;;;;;;;7.08;100.00;103130.13;4967629;28;20042;-78
2022/04/29 04:35:10;;;;;;;6.65;3.03;;;;;;;7.10;100.00;103131.09;4937699;28;20507;-78
2022/04/29 04:37:38;;;;;;;7.85;3.38;;;;;;;7.11;100.00;103132.03;4945033;28;20043;-78
2022/04/29 04:40:09;;;;;;;11.63;2.92;;;;;;;7.13;100.00;103140.88;4966750;28;20359;-78
2022/04/29 04:42:47;;;;;;;9.68;3.03;;;;;;;7.15;100.00;103136.59;4937530;28;20069;-78
2022/04/29 04:45:27;;;;;;;6.93;2.30;;;;;;;7.17;100.00;103132.34;4941331;28;20038;-80
2022/04/29 04:48:31;;;;;;;7.38;2.75;;;;;;;7.20;100.00;103137.72;4982958;28;20069;-79
2022/04/29 04:51:08;;;;;;;5.25;2.53;;;;;;;7.23;100.00;103136.19;4982226;28;20042;-78
2022/04/29 04:53:40;;;;;;;6.95;2.75;;;;;;;7.29;100.00;103135.59;4974680;28;20200;-78
2022/04/29 04:56:09;;;;;;;3.13;2.53;;;;;;;7.33;100.00;103136.66;4972412;28;20395;-79
2022/04/29 04:58:37;;;;;;;5.03;2.50;;;;;;;7.36;100.00;103144.72;4987692;28;20538;-78
2022/04/29 05:01:06;;;;;;;5.13;3.13;;;;;;;7.41;100.00;103148.50;4948294;28;20049;-79
2022/04/29 05:03:53;;;;;;;8.80;2.33;;;;;;;7.45;100.00;103139.03;5002030;28;20039;-78
2022/04/29 05:06:40;;;;;;;8.18;2.17;;;;;;;7.48;100.00;103134.84;4958437;28;20061;-78
2022/04/29 05:09:09;;;;;;;4.13;2.22;;;;;;;7.52;100.00;103136.81;4971607;28;20057;-78
2022/04/29 05:11:38;;;;;;;5.72;2.40;;;;;;;7.56;100.00;103146.66;4988121;28;20272;-79
2022/04/29 05:14:49;;;;;;;3.85;2.25;;;;;;;7.61;100.00;103136.41;4988851;28;20054;-79
2022/04/29 05:17:18;;;;;;;6.82;2.40;;;;;;;7.64;100.00;103135.66;4949654;28;20054;-79
2022/04/29 05:20:09;;;;;;;7.97;2.13;;;;;;;7.68;100.00;103141.16;4990763;28;20054;-79
2022/04/29 05:22:40;;;;;;;7.55;2.45;;;;;;;7.75;100.00;103140.66;4957755;28;20065;-79
2022/04/29 05:25:13;;;;;;;5.22;2.10;;;;;;;7.80;100.00;103141.75;4977114;28;20042;-78
2022/04/29 05:28:01;;;;;;;5.63;2.55;;;;;;;7.87;100.00;103149.97;4956008;28;20042;-78
2022/04/29 05:31:03;;;;;;;4.00;1.98;;;;;;;7.92;100.00;103154.63;4961475;28;20492;-78
2022/04/29 05:34:10;;;;;;;8.30;2.08;;;;;;;8.00;100.00;103144.53;4924002;29;20297;-79
2022/04/29 05:36:57;;;;;;;4.90;1.70;;;;;;;8.08;100.00;103143.19;4944002;28;20051;-78
2022/04/29 05:42:40;;;;;;;5.43;1.60;;;;;;;8.26;100.00;103143.22;4970598;28;20046;-79
2022/04/29 05:45:08;;;;;;;3.83;1.25;;;;;;;8.32;100.00;103150.50;4950425;28;20169;-79
2022/04/29 05:47:38;;;;;;;4.18;1.30;;;;;;;8.36;100.00;103132.31;4948039;28;20399;-79
2022/04/29 05:50:07;;;;;;;7.78;1.88;;;;;;;8.42;100.00;103131.75;4952829;28;20043;-79
2022/04/29 05:52:39;;;;;;;4.40;1.73;;;;;;;8.48;100.00;103132.03;4960279;28;20516;-79
2022/04/29 05:55:08;;;;;;;3.97;1.45;;;;;;;8.53;100.00;103133.16;4946164;28;20055;-79
2022/04/29 05:57:38;;;;;;;5.03;1.70;;;;;;;8.58;100.00;103138.63;4996914;28;20050;-78
2022/04/29 06:00:07;;;;;;;2.90;1.75;;;;;;;8.58;100.00;103136.00;4985194;28;20053;-78
2022/04/29 06:02:55;;;;;;;4.45;1.70;;;;;;;8.61;100.00;103144.03;4953240;28;24963;-79
2022/04/29 06:05:26;;;;;;;6.82;2.10;;;;;;;8.65;100.00;103145.09;4982830;28;20034;-79
2022/04/29 06:07:55;;;;;;;8.00;2.30;;;;;;;8.68;100.00;103150.50;4975311;28;20046;-79
2022/04/29 06:10:51;;;;;;;8.18;2.50;;;;;;;8.70;100.00;103140.97;4972403;28;20061;-78
2022/04/29 06:13:19;;;;;;;3.00;1.50;;;;;;;8.69;100.00;103142.66;4951241;28;20053;-79
2022/04/29 06:16:14;;;;;;;7.40;2.00;;;;;;;8.70;100.00;103154.09;4969258;28;20046;-79
2022/04/29 06:19:01;;;;;;;3.20;1.85;;;;;;;8.68;100.00;103145.25;4961437;28;20038;-79
2022/04/29 06:21:51;;;;;;;4.00;1.85;;;;;;;8.63;99.79;103147.66;4988874;28;20042;-79
2022/04/29 06:24:25;;;;;;;5.40;1.58;;;;;;;8.64;100.00;103149.47;4940951;28;20050;-79
2022/04/29 06:26:54;;;;;;;3.88;1.50;;;;;;;8.64;100.00;103144.19;4939383;28;20055;-78
2022/04/29 06:29:23;;;;;;;7.97;2.13;;;;;;;8.64;99.52;103148.53;4963249;28;20037;-79
2022/04/29 06:31:59;;;;;;;3.67;1.50;;;;;;;8.58;98.98;103142.19;4953634;28;20081;-79
2022/04/29 06:35:03;;;;;;;5.78;2.00;;;;;;;8.57;99.38;103140.38;4959686;28;20039;-79
2022/04/29 06:37:37;;;;;;;6.47;1.90;;;;;;;8.58;99.67;103133.38;4969255;28;20093;-79
2022/04/29 06:40:41;;;;;;;9.25;2.28;;;;;;;8.63;99.84;103139.75;4907486;29;20039;-79
2022/04/29 06:43:09;;;;;;;6.68;1.88;;;;;;;8.67;99.16;103144.31;4953156;28;20065;-79
2022/04/29 06:45:57;;;;;;;6.32;1.70;;;;;;;8.72;99.75;103142.81;4968839;28;20053;-79
2022/04/29 06:48:48;;;;;;;4.20;1.73;;;;;;;8.80;99.58;103148.44;4990542;28;20046;-79
2022/04/29 06:51:23;;;;;;;4.70;1.63;;;;;;;8.85;98.77;103144.31;4941114;28;20045;-79
2022/04/29 06:53:57;;;;;;;1.92;1.58;;;;;;;8.89;98.87;103146.25;4958178;28;20529;-79
2022/04/29 06:56:34;;;;;;;5.32;1.75;;;;;;;8.93;98.68;103140.31;4943688;28;20504;-79
2022/04/29 06:59:03;;;;;;;10.65;1.88;;;;;;;8.97;98.19;103134.34;4963336;28;20042;-79
2022/04/29 07:01:36;;;;;;;3.15;1.80;;;;;;;9.03;98.54;103136.38;4986201;28;20034;-79
2022/04/29 07:04:05;;;;;;;4.82;2.10;;;;;;;9.07;98.18;103134.78;4957310;28;20034;-79
2022/04/29 07:06:40;;;;;;;3.28;1.55;;;;;;;9.15;98.05;103138.69;4978781;28;20041;-79
2022/04/29 07:09:10;;;;;;;3.97;1.50;;;;;;;9.22;97.95;103139.84;4948754;28;20502;-79
2022/04/29 07:12:06;;;;;;;8.77;1.23;;;;;;;9.32;96.61;103145.59;4963839;28;20046;-79
2022/04/29 07:14:52;;;;;;;5.28;1.52;;;;;;;9.42;95.73;103148.66;4995784;28;20053;-79
2022/04/29 07:17:23;;;;;;;5.25;1.40;;;;;;;9.46;95.56;103150.59;4964966;28;20165;-79
2022/04/29 07:19:55;;;;;;;3.50;1.23;;;;;;;9.55;94.87;103144.00;4983727;28;20042;-80
2022/04/29 07:22:31;;;;;;;4.03;1.50;;;;;;;9.66;94.73;103148.81;4946376;28;20233;-79
2022/04/29 07:25:00;;;;;;;3.80;1.60;;;;;;;9.72;94.23;103143.84;4979696;28;20515;-79
2022/04/29 07:27:29;;;;;;;2.28;1.50;;;;;;;9.89;94.69;103147.19;4945085;28;20053;-79
2022/04/29 07:29:59;;;;;;;2.47;1.13;;;;;;;10.02;93.47;103154.78;4960836;28;20050;-79
2022/04/29 07:32:39;;;;;;;8.27;1.30;;;;;;;10.11;93.17;103144.63;4991506;28;20488;-79
2022/04/29 07:44:24;;;;;;;5.90;1.50;;;;;;;10.28;90.74;103131.22;4914565;29;20055;-79
2022/04/29 07:46:55;;;;;;;4.45;1.90;;;;;;;10.23;91.65;103143.34;4899404;29;20062;-79
2022/04/29 07:49:42;;;;;;;4.45;1.80;;;;;;;10.12;90.59;103133.25;4966685;28;20043;-79
2022/04/29 07:52:17;;;;;;;4.93;1.45;;;;;;;10.04;90.91;103137.31;4966893;28;20266;-80
2022/04/29 07:54:46;;;;;;;3.30;1.33;;;;;;;9.99;90.75;103138.84;4932278;28;20050;-79
2022/04/29 07:57:15;;;;;;;5.35;1.73;;;;;;;9.97;91.49;103147.53;4957284;28;20331;-79
2022/04/29 07:59:43;;;;;;;3.55;1.40;;;;;;;9.95;92.35;103153.59;4986151;28;20034;-79
2022/04/29 08:02:42;;;;;;;5.75;1.30;;;;;;;9.95;91.73;103147.44;4956304;28;20435;-79
2022/04/29 08:05:13;;;;;;;5.60;1.30;;;;;;;9.89;90.92;103148.09;4977335;28;20049;-79
2022/04/29 08:07:42;;;;;;;3.25;1.40;;;;;;;9.79;90.92;103150.25;4975299;28;20510;-79
2022/04/29 08:10:10;;;;;;;3.28;1.42;;;;;;;9.74;91.02;103152.69;4968663;28;20061;-79
2022/04/29 08:12:39;;;;;;;2.50;1.33;;;;;;;9.70;91.20;103162.19;4990816;28;20383;-79
2022/04/29 08:15:31;;;;;;;4.28;1.30;;;;;;;9.66;91.46;103164.59;4949953;28;20054;-79
2022/04/29 08:18:12;;;;;;;4.55;1.77;;;;;;;9.62;91.58;103158.34;4972182;28;20042;-79
2022/04/29 08:20:42;;;;;;;2.40;1.25;;;;;;;9.58;91.71;103153.75;4945846;28;20038;-79
2022/04/29 08:23:10;;;;;;;3.08;1.48;;;;;;;9.53;92.04;103157.94;4993949;28;20030;-79
2022/04/29 08:25:39;;;;;;;2.53;1.60;;;;;;;9.49;92.50;103150.69;4943909;28;20057;-79
2022/04/29 08:28:08;;;;;;;5.85;1.70;;;;;;;9.47;93.14;103149.72;4978412;28;20042;-79
2022/04/29 08:30:36;;;;;;;5.47;1.70;;;;;;;9.46;93.17;103150.59;4957954;28;20518;-78
2022/04/29 08:33:11;;;;;;;6.45;2.03;;;;;;;9.43;93.63;103156.59;4984315;28;20053;-78
2022/04/29 08:35:44;;;;;;;4.80;1.52;;;;;;;9.39;93.80;103156.41;5008187;28;20387;-78
2022/04/29 08:38:14;;;;;;;2.38;1.58;;;;;;;9.44;94.15;103157.50;4971918;28;20177;-80
2022/04/29 08:40:49;;;;;;;3.80;1.48;;;;;;;9.51;93.99;103160.47;4954727;28;20491;-78
2022/04/29 08:43:25;;;;;;;6.88;1.60;;;;;;;9.55;93.74;103143.09;4971618;28;20042;-80
2022/04/29 08:45:56;;;;;;;3.67;1.60;;;;;;;9.57;93.19;103141.44;4993360;28;20042;-78
2022/04/29 08:48:45;;;;;;;2.63;1.73;;;;;;;9.61;93.45;103146.00;4991070;28;20042;-78
2022/04/29 08:51:14;;;;;;;3.38;1.70;;;;;;;9.65;93.00;103145.28;4980527;28;20047;-81
2022/04/29 08:53:42;;;;;;;3.85;1.63;;;;;;;9.68;92.26;103141.91;4991212;28;20087;-80
2022/04/29 08:59:01;;;;;;;6.05;1.67;;;;;;;9.88;92.47;103150.66;4978174;28;20034;-78
2022/04/29 09:01:30;;;;;;;4.55;2.13;;;;;;;9.99;91.95;103149.38;4979874;28;20050;-78
2022/04/29 09:03:59;;;;;;;8.80;1.88;;;;;;;9.97;89.66;103144.88;4961469;28;20047;-78
2022/04/29 09:06:31;;;;;;;4.75;1.60;;;;;;;9.97;90.14;103151.03;4994645;28;20046;-80
2022/04/29 09:09:09;;;;;;;5.40;2.33;;;;;;;10.02;90.59;103133.72;4998866;28;20381;-78
2022/04/29 09:11:37;;;;;;;3.30;1.52;;;;;;;10.03;89.44;103137.22;4969759;28;20043;-79
2022/04/29 09:14:23;;;;;;;4.22;1.85;;;;;;;10.01;88.86;103144.19;4953373;28;20046;-78
2022/04/29 09:16:51;;;;;;;2.63;1.90;;;;;;;9.96;89.84;103138.69;4960816;28;20042;-79
2022/04/29 09:19:35;;;;;;;5.55;2.00;;;;;;;9.92;89.58;103150.88;4947263;28;20627;-79
2022/04/29 09:22:07;;;;;;;4.28;2.20;;;;;;;9.87;89.81;103143.59;4975256;28;20049;-78
2022/04/29 09:25:00;;;;;;;6.72;2.42;;;;;;;9.84;88.72;103148.72;4988192;28;20042;-79
2022/04/29 09:28:11;;;;;;;6.78;3.05;;;;;;;9.81;88.01;103149.50;4955332;28;20039;-79
2022/04/29 09:31:02;;;;;;;4.75;2.67;;;;;;;9.82;88.89;103153.91;4984223;28;20061;-79
2022/04/29 09:33:56;;;;;;;6.13;1.90;;;;;;;9.79;89.26;103151.13;4980183;28;20521;-79
2022/04/29 09:36:43;;;;;;;4.20;1.83;;;;;;;9.80;89.32;103152.06;5001094;28;20383;-78
2022/04/29 09:42:01;;;;;;;5.38;2.00;;;;;;;9.81;88.96;103148.56;4976655;28;20058;-78
2022/04/29 09:44:35;;;;;;;6.82;2.00;;;;;;;9.81;88.75;103148.56;4954021;28;20035;-78
2022/04/29 09:47:17;;;;;;;;;;;;;;;9.83;88.15;103145.19;4994281;28;20385;-78
2022/04/29 09:49:59;;;;;;;1.80;1.70;;;;;;;9.91;88.97;103146.41;4974074;28;19930;-79
2022/04/29 09:52:30;;;;;;;6.80;2.10;;;;;;;9.87;88.08;103143.59;4976968;28;20058;-79
2022/04/29 09:55:14;;;;;;;5.32;2.03;;;;;;;9.87;88.23;103148.88;4977674;28;20050;-79
2022/04/29 09:57:58;;;;;;;4.13;1.90;;;;;;;9.85;87.89;103147.88;4975570;28;20041;-79
2022/04/29 10:00:27;;;;;;;6.25;2.40;;;;;;;9.79;88.51;103144.97;4954251;28;20046;-79
2022/04/29 10:02:57;;;;;;;5.07;2.15;;;;;;;9.79;89.58;103144.97;4981389;28;20411;-80
2022/04/29 10:05:29;;;;;;;3.88;2.17;;;;;;;9.85;89.56;103140.91;4957589;28;20042;-80
2022/04/29 10:08:06;;;;;;;4.63;1.83;;;;;;;9.88;89.68;103148.91;4967273;28;20055;-80
2022/04/29 10:10:35;;;;;;;3.05;1.92;;;;;;;9.97;89.35;103148.41;4951347;28;20042;-80
2022/04/29 10:13:07;;;;;;;4.85;1.65;;;;;;;9.96;89.11;103149.22;4954022;28;20039;-80
2022/04/29 10:15:53;;;;;;;2.17;1.60;;;;;;;9.99;88.67;103144.09;4934805;28;20411;-78
2022/04/29 10:21:57;;;;;;;3.53;1.95;;;;;;;9.89;87.28;103158.63;5000344;28;20045;-81
2022/04/29 10:24:28;;;;;;;4.00;2.17;;;;;;;9.83;87.46;103157.44;4980206;28;20251;-80
2022/04/29 10:26:57;;;;;;;3.45;1.85;;;;;;;9.78;87.62;103156.38;4977687;28;20050;-82
2022/04/29 10:29:26;;;;;;;3.22;1.88;;;;;;;9.80;87.83;103160.84;4968500;28;20073;-79
2022/04/29 10:32:13;;;;;;;4.05;1.88;;;;;;;9.79;86.72;103161.66;4940398;28;20415;-79
2022/04/29 10:34:42;;;;;;;4.00;2.08;;;;;;;9.76;86.88;103169.47;4965541;28;20066;-79
2022/04/29 10:37:13;;;;;;;4.53;2.05;;;;;;;9.79;86.59;103168.69;4939872;28;20050;-80
2022/04/29 10:40:10;;;;;;;5.45;2.05;;;;;;;9.79;85.33;103160.78;4982390;28;20050;-79
2022/04/29 10:43:07;;;;;;;2.90;1.67;;;;;;;9.68;84.84;103178.75;5000604;28;20035;-78
2022/04/29 10:46:04;;;;;;;5.60;1.90;;;;;;;9.60;84.73;103183.66;4977063;28;20049;-80
2022/04/29 10:48:43;;;;;;;4.93;1.67;;;;;;;9.60;85.31;103177.50;4978677;28;20388;-79
2022/04/29 10:51:30;;;;;;;2.65;1.85;;;;;;;9.60;85.17;103186.28;4965739;28;20042;-80
2022/04/29 10:54:33;;;;;;;13.07;2.40;;;;;;;9.59;83.36;103179.25;4985148;28;20412;-80
2022/04/29 10:57:39;;;;;;;8.70;2.55;;;;;;;9.59;84.61;103171.34;4997537;28;20593;-80
2022/04/29 11:00:12;;;;;;;6.30;2.00;;;;;;;9.59;84.53;103168.72;4976232;28;20750;-80
2022/04/29 11:02:49;;;;;;;4.03;1.80;;;;;;;9.59;85.00;103159.94;4964532;28;20492;-82
2022/04/29 11:05:47;;;;;;;1.70;1.60;;;;;;;9.68;84.14;103148.06;4978790;28;20047;-81
2022/04/29 11:08:18;;;;;;;3.92;2.05;;;;;;;9.81;85.29;103152.13;4950768;28;20050;-80
2022/04/29 11:10:57;;;;;;;2.65;1.80;;;;;;;9.85;84.11;103151.44;4964059;28;20069;-80
2022/04/29 11:13:27;;;;;;;6.05;1.50;;;;;;;9.84;83.76;103154.88;4982996;28;20524;-81
2022/04/29 11:16:08;;;;;;;3.58;1.83;;;;;;;9.93;83.78;103155.28;4977862;28;20038;-80
2022/04/29 11:19:21;;;;;;;4.03;2.25;;;;;;;10.00;82.46;103150.25;4960966;28;20103;-81
2022/04/29 11:24:53;;;;;;;2.38;1.85;;;;;;;10.12;83.00;103142.91;4996685;28;20050;-80
2022/04/29 11:27:37;;;;;;;7.97;2.13;;;;;;;10.28;82.53;103147.03;4980300;28;20050;-80
2022/04/29 11:30:18;;;;;;;3.92;1.67;;;;;;;10.42;82.48;103139.75;4957861;28;20047;-80
2022/04/29 11:32:58;;;;;;;5.13;1.80;;;;;;;10.43;80.49;103145.06;4955749;28;20053;-79
2022/04/29 11:35:27;;;;;;;5.10;1.75;;;;;;;10.40;80.82;103151.97;4957979;28;20053;-79
2022/04/29 11:37:58;;;;;;;7.28;1.83;;;;;;;10.34;80.79;103160.53;4954881;28;20051;-78
2022/04/29 11:40:27;;;;;;;;;;;;;;;10.29;79.46;103152.38;4980005;28;20054;-78
2022/04/29 11:42:56;;;;;;;3.25;1.92;;;;;;;10.30;81.71;103150.66;4954534;28;19926;-79
2022/04/29 11:45:25;;;;;;;4.85;1.52;;;;;;;10.24;81.61;103140.75;4963923;28;20046;-81
2022/04/29 11:48:07;;;;;;;3.03;1.77;;;;;;;10.23;81.39;103141.59;4947376;28;20346;-79
2022/04/29 11:50:38;;;;;;;2.90;2.05;;;;;;;10.29;82.19;103138.31;4974797;28;20066;-80
2022/04/29 11:53:10;;;;;;;4.80;1.97;;;;;;;10.43;82.06;103139.78;4969358;28;20283;-78
2022/04/29 11:55:39;;;;;;;7.13;1.80;;;;;;;10.57;82.58;103139.44;4983020;28;20041;-81
2022/04/29 11:58:09;;;;;;;5.40;1.90;;;;;;;10.69;82.11;103135.56;4971448;28;20176;-79
2022/04/29 12:00:37;;;;;;;4.10;2.08;;;;;;;10.70;81.84;103133.84;4978062;28;20049;-79
2022/04/29 12:03:06;;;;;;;4.65;1.90;;;;;;;10.76;81.69;103131.44;4953894;28;20195;-79
2022/04/29 12:05:35;;;;;;;2.00;1.55;;;;;;;10.82;82.54;103136.94;4976557;28;20057;-79
2022/04/29 12:08:08;;;;;;;3.38;1.60;;;;;;;10.87;81.99;103131.88;4942458;28;20050;-79
2022/04/29 12:10:47;;;;;;;4.07;1.90;;;;;;;10.92;81.12;103130.28;4984450;28;20041;-78
2022/04/29 12:13:21;;;;;;;;;;;;;;;10.96;77.80;103129.56;4943897;28;20611;-79
2022/04/29 12:15:54;;;;;;;4.25;1.55;;;;;;;10.98;80.16;103133.16;4975745;28;19922;-78
2022/04/29 12:18:43;;;;;;;4.35;1.63;;;;;;;11.11;78.82;103126.59;4948018;28;20035;-78
2022/04/29 12:21:19;;;;;;;3.47;1.58;;;;;;;11.11;78.14;103123.97;4992975;28;20047;-78
2022/04/29 12:23:48;;;;;;;4.85;1.55;;;;;;;11.05;78.18;103129.03;4969346;28;20049;-80
2022/04/29 12:26:17;;;;;;;6.30;1.58;;;;;;;11.02;79.15;103126.25;4976838;28;20708;-80
2022/04/29 12:28:56;;;;;;;5.25;2.00;;;;;;;11.05;78.12;103124.63;4980433;28;20054;-80
2022/04/29 12:37:11;;;;;;;3.33;1.65;;;;;;;11.20;78.23;103111.09;4973736;28;20057;-80
2022/04/29 12:40:02;;;;;;;4.93;1.60;;;;;;;11.23;78.56;103110.34;4975189;28;20118;-80
2022/04/29 12:42:33;;;;;;;4.07;1.50;;;;;;;11.14;77.96;103110.91;4980026;28;20046;-79